Aérodrome :
LOGIN :

S'inscrire | Disclaimer

   EN    FR    IT 

 










Légende :    VFR   VFR Marginal   IFR   IFR Intensif   IFR Très Intensif
Visi : 
Plafond : 
>= 8 km
>= 3000ft
5 à 8 km
1000 à 3000 ft
1500m à 5 km
500 à 1000 ft
800 à 1500m
200 à 500 ft
< 800m
< 200 ft
Symboles :   Orages  Brouillard  Fortes neiges  Fortes précipitations  Vent > 20 kt
SIGMETs :   Divers  Orages  Givrage  Turbulence  Onde Orograph.  Cendres Volcan.







- Altitude de l'aérodrome : 913 ft
- Voir les cartes d'approche


LFSX - Luxeuil

DERNIER METAR :
  • 181430Z AUTO 03004KT 280V090 CAVOK 28/15 Q1013

METARs EXPIRÉS :
  • 181400Z AUTO 26003KT 210V310 CAVOK 28/15 Q1014
  • 181330Z AUTO 29003KT 250V330 CAVOK 28/16 Q1014
  • 181300Z AUTO VRB03KT 9999 FEW001 SCT200 28/15 Q1014
  • 181230Z AUTO 26003KT 210V280 CAVOK 27/16 Q1014
  • 181200Z AUTO 26003KT 170V340 CAVOK 27/14 Q1014

TAF TAF LFSX
Valide du 18 à 15h jusqu'au 19 à 15h UTC


181400Z 1815/1915 13006KT CAVOK
FM191400 24010KT 9999 FEW060TCU
Pas de NOTAMs connus pour ce terrain.



MET'MAP, la Météo Aéronautique d'un coup d'oeil ! - Copyright ORBIFLY Décembre 2007 - Disclaimer

ORBIFLY MET'MAP TEAM :

Programmation & Développement : Alexandra Zaïnal
Conception & Développement : Baudouin d'Aumeries
Co-Programmation & Développement : Marc-Olivier Méhu
Soutien technique & logistique : Manuel Goepfert

Contact : metmap@orbifly.com




SOURCES & CREDITS :

   NOAA